Time;durP1;ratioP1;P1;durP2;ratioP2;P2;SDS_P1;SDS_P2;PMS_P1;PMS_P2;Temp;Humidity;BMP_temperature;BMP_pressure;BME280_temperature;BME280_humidity;BME280_pressure;Samples;Min_cycle;Max_cycle;Signal;HPM_P1;HPM_P2
2022/06/10 00:01:20;;;;;;;7.90;4.97;;;14.80;99.90;;;;;;5026867;28;20454;-77
2022/06/10 00:03:49;;;;;;;8.23;5.10;;;14.80;99.90;;;;;;5024269;28;20439;-79
2022/06/10 00:06:17;;;;;;;7.93;5.00;;;14.80;99.90;;;;;;5044075;28;20449;-78
2022/06/10 00:08:48;;;;;;;8.70;5.37;;;14.70;99.90;;;;;;5030270;28;20466;-79
2022/06/10 00:11:17;;;;;;;7.03;5.00;;;14.70;99.90;;;;;;5032883;28;20447;-79
2022/06/10 00:13:47;;;;;;;7.27;5.20;;;14.60;99.90;;;;;;5030811;28;20446;-80
2022/06/10 00:16:17;;;;;;;10.40;5.60;;;14.60;99.90;;;;;;5030143;28;20518;-80
2022/06/10 00:18:47;;;;;;;10.57;5.93;;;14.60;99.90;;;;;;5051429;28;20428;-80
2022/06/10 00:21:17;;;;;;;13.63;5.63;;;14.50;99.90;;;;;;5032834;28;20451;-80
2022/06/10 00:23:45;;;;;;;8.83;5.43;;;14.50;99.90;;;;;;5030266;28;20533;-78
2022/06/10 00:26:14;;;;;;;8.33;5.37;;;14.50;99.90;;;;;;5028880;28;20479;-79
2022/06/10 00:28:45;;;;;;;10.40;6.20;;;14.40;99.90;;;;;;5047289;28;20443;-79
2022/06/10 00:31:14;;;;;;;9.33;4.93;;;14.40;99.90;;;;;;5044611;28;20417;-78
2022/06/10 00:33:50;;;;;;;8.10;5.93;;;14.40;99.90;;;;;;5026737;28;20508;-78
2022/06/10 00:36:18;;;;;;;7.90;5.70;;;14.30;99.90;;;;;;5044095;28;20534;-78
2022/06/10 00:38:46;;;;;;;10.20;6.13;;;14.30;99.90;;;;;;5045974;28;20454;-80
2022/06/10 00:41:15;;;;;;;10.60;6.10;;;14.30;99.90;;;;;;5048827;28;20443;-79
2022/06/10 00:43:43;;;;;;;10.10;6.27;;;14.20;99.90;;;;;;5027343;28;20453;-79
2022/06/10 00:46:29;;;;;;;7.87;5.60;;;14.20;99.90;;;;;;5045799;28;20521;-78
2022/06/10 00:49:05;;;;;;;8.73;5.40;;;14.20;99.90;;;;;;5046747;28;20783;-80
2022/06/10 00:51:37;;;;;;;7.97;5.67;;;14.10;99.90;;;;;;5026318;28;20470;-79
2022/06/10 00:54:13;;;;;;;8.20;5.87;;;14.10;99.90;;;;;;5027931;28;20443;-79
2022/06/10 00:56:44;;;;;;;7.60;5.57;;;14.10;99.90;;;;;;5025556;28;20944;-78
2022/06/10 00:59:16;;;;;;;8.87;6.30;;;14.00;99.90;;;;;;5042223;28;20458;-79
2022/06/10 01:01:45;;;;;;;9.47;6.30;;;14.00;99.90;;;;;;5045269;28;20406;-79
2022/06/10 01:04:15;;;;;;;8.77;6.10;;;14.00;99.90;;;;;;5026561;28;20455;-79
2022/06/10 01:06:43;;;;;;;9.20;6.00;;;13.90;99.90;;;;;;5021938;28;20463;-79
2022/06/10 01:09:12;;;;;;;10.37;6.03;;;13.90;99.90;;;;;;5040576;28;20431;-79
2022/06/10 01:12:06;;;;;;;10.37;6.00;;;13.90;99.90;;;;;;5043045;28;20514;-80
2022/06/10 01:14:48;;;;;;;7.47;6.07;;;13.80;99.90;;;;;;5044499;28;20534;-79
2022/06/10 01:17:29;;;;;;;11.93;7.07;;;13.80;99.90;;;;;;5024692;28;20527;-79
2022/06/10 01:20:10;;;;;;;9.10;7.37;;;13.80;99.90;;;;;;5026218;28;20439;-78
2022/06/10 01:23:11;;;;;;;11.03;7.00;;;13.80;99.90;;;;;;5024767;28;20447;-78
2022/06/10 01:26:13;;;;;;;11.33;7.20;;;13.70;99.90;;;;;;5022315;28;20475;-79
2022/06/10 01:29:08;;;;;;;10.63;7.50;;;13.70;99.90;;;;;;5008425;28;20446;-79
2022/06/10 01:31:45;;;;;;;10.47;7.23;;;13.60;99.90;;;;;;5024258;28;20451;-79
2022/06/10 01:34:26;;;;;;;9.70;7.30;;;13.60;99.90;;;;;;5042593;28;20481;-79
2022/06/10 01:37:01;;;;;;;9.40;6.87;;;13.60;99.90;;;;;;5026676;28;20462;-78
2022/06/10 01:39:43;;;;;;;9.33;7.30;;;13.60;99.90;;;;;;5024466;28;20453;-78
2022/06/10 01:42:16;;;;;;;10.40;6.93;;;13.50;99.90;;;;;;5024204;28;20443;-79
2022/06/10 01:44:55;;;;;;;10.83;7.50;;;13.50;99.90;;;;;;5024132;28;20486;-78
2022/06/10 01:47:29;;;;;;;9.07;6.23;;;13.50;99.90;;;;;;5042473;28;20532;-79
2022/06/10 01:50:02;;;;;;;8.10;6.50;;;13.50;99.90;;;;;;5042341;28;20431;-78
2022/06/10 01:52:38;;;;;;;10.93;8.17;;;13.50;99.90;;;;;;5042265;28;20458;-78
2022/06/10 01:55:12;;;;;;;11.47;7.63;;;13.40;99.90;;;;;;5023758;28;20480;-78
2022/06/10 01:57:46;;;;;;;10.30;7.40;;;13.40;99.90;;;;;;5023707;28;20438;-78
2022/06/10 02:00:18;;;;;;;10.23;7.33;;;13.40;99.90;;;;;;5025176;28;20534;-78
2022/06/10 02:02:54;;;;;;;10.17;8.20;;;13.30;99.90;;;;;;5023793;28;20533;-78
2022/06/10 02:05:25;;;;;;;10.13;7.47;;;13.30;99.90;;;;;;5018534;28;20481;-77
2022/06/10 02:07:57;;;;;;;11.20;7.50;;;13.30;99.90;;;;;;5036472;28;20458;-78
2022/06/10 02:10:32;;;;;;;10.63;7.97;;;13.20;99.90;;;;;;5019626;28;20453;-77
2022/06/10 02:13:05;;;;;;;9.90;8.00;;;13.10;99.90;;;;;;5020187;28;20549;-78
2022/06/10 02:15:38;;;;;;;9.73;7.80;;;13.20;99.90;;;;;;5029007;28;20470;-78
2022/06/10 02:18:11;;;;;;;9.60;7.47;;;13.10;99.90;;;;;;5027264;28;20446;-79
2022/06/10 02:20:46;;;;;;;9.00;7.53;;;13.10;99.90;;;;;;5048191;28;20796;-79
2022/06/10 02:23:21;;;;;;;11.27;8.00;;;13.10;99.90;;;;;;5047876;28;20446;-79
2022/06/10 02:25:53;;;;;;;8.43;7.50;;;13.10;99.90;;;;;;5029913;28;20516;-79
2022/06/10 02:28:28;;;;;;;10.93;7.33;;;13.10;99.90;;;;;;5050877;28;20952;-79
2022/06/10 02:31:00;;;;;;;8.03;7.20;;;13.00;99.90;;;;;;5034409;28;20987;-80
2022/06/10 02:33:30;;;;;;;8.10;6.43;;;13.00;99.90;;;;;;5033673;28;20462;-80
2022/06/10 02:36:08;;;;;;;10.00;7.53;;;13.00;99.90;;;;;;5033963;28;20837;-77
2022/06/10 02:38:47;;;;;;;9.30;7.53;;;12.90;99.90;;;;;;5032245;28;20473;-80
2022/06/10 02:41:23;;;;;;;9.63;7.93;;;12.90;99.90;;;;;;5029415;28;20881;-78
2022/06/10 02:43:59;;;;;;;8.60;7.70;;;12.90;99.90;;;;;;5028135;28;20445;-80
2022/06/10 02:46:33;;;;;;;9.73;7.80;;;12.90;99.90;;;;;;5049408;28;20512;-80
2022/06/10 02:49:07;;;;;;;11.00;7.40;;;12.90;99.90;;;;;;5048044;28;20411;-77
2022/06/10 02:51:36;;;;;;;12.00;8.60;;;12.90;99.90;;;;;;5044413;28;20442;-78
2022/06/10 02:54:08;;;;;;;10.40;8.13;;;12.80;99.90;;;;;;5025484;28;20473;-78
2022/06/10 02:56:36;;;;;;;13.90;8.00;;;12.80;99.90;;;;;;5025289;28;20502;-78
2022/06/10 03:02:08;;;;;;;12.47;8.13;;;12.80;99.90;;;;;;5027929;28;20475;-79
2022/06/10 03:04:49;;;;;;;12.10;7.93;;;12.70;99.90;;;;;;5033140;28;20992;-79
2022/06/10 03:07:32;;;;;;;10.10;8.90;;;12.70;99.90;;;;;;5054629;28;20454;-80
2022/06/10 03:10:14;;;;;;;8.60;7.30;;;12.70;99.90;;;;;;5036728;28;20493;-80
2022/06/10 03:12:51;;;;;;;9.97;8.03;;;12.70;99.90;;;;;;5035709;28;20456;-79
2022/06/10 03:15:32;;;;;;;10.37;7.70;;;12.70;99.90;;;;;;5034980;28;20497;-79
2022/06/10 03:18:09;;;;;;;8.33;7.30;;;12.70;99.90;;;;;;5034102;28;20534;-79
2022/06/10 03:20:45;;;;;;;16.43;12.13;;;12.60;99.90;;;;;;5033683;28;20451;-79
2022/06/10 03:23:22;;;;;;;16.40;11.80;;;12.60;99.90;;;;;;5033466;28;20450;-80
2022/06/10 03:25:54;;;;;;;16.60;14.17;;;12.60;99.90;;;;;;5033724;28;20481;-78
2022/06/10 03:28:26;;;;;;;12.13;9.20;;;12.60;99.90;;;;;;5028170;28;20808;-78
2022/06/10 03:30:58;;;;;;;9.07;7.93;;;12.60;99.90;;;;;;5028043;28;20478;-78
2022/06/10 03:33:31;;;;;;;10.97;8.67;;;12.50;99.90;;;;;;5027966;28;20435;-78
2022/06/10 03:36:06;;;;;;;13.73;12.00;;;12.60;99.90;;;;;;5048371;28;20549;-79
2022/06/10 03:38:41;;;;;;;16.43;11.97;;;12.50;99.90;;;;;;5028577;28;20474;-78
2022/06/10 03:41:18;;;;;;;10.67;8.80;;;12.50;99.90;;;;;;5047397;28;20428;-78
2022/06/10 03:43:47;;;;;;;11.53;10.07;;;12.50;99.90;;;;;;5045249;28;20419;-79
2022/06/10 03:46:17;;;;;;;12.77;9.40;;;12.50;99.90;;;;;;5026855;28;20479;-78
2022/06/10 03:48:47;;;;;;;19.20;14.37;;;12.50;99.90;;;;;;5027363;28;20915;-78
2022/06/10 03:51:18;;;;;;;14.33;10.90;;;12.50;99.90;;;;;;5027705;28;20455;-81
2022/06/10 03:53:48;;;;;;;12.80;10.53;;;12.50;99.90;;;;;;5026936;28;20526;-79
2022/06/10 03:56:21;;;;;;;11.83;8.53;;;12.50;99.90;;;;;;5027139;28;20467;-80
2022/06/10 03:58:50;;;;;;;10.73;8.43;;;12.50;99.90;;;;;;5027559;28;20486;-77
2022/06/10 04:01:19;;;;;;;9.67;8.50;;;12.50;99.90;;;;;;5045756;28;20531;-79
2022/06/10 04:03:47;;;;;;;10.63;8.43;;;12.50;99.90;;;;;;5026819;28;20541;-77
2022/06/10 04:06:18;;;;;;;10.10;7.90;;;12.50;99.90;;;;;;5026601;28;20466;-79
2022/06/10 04:09:07;;;;;;;9.63;7.60;;;12.50;99.90;;;;;;5046785;28;20475;-80
2022/06/10 04:11:35;;;;;;;13.87;8.47;;;12.50;99.90;;;;;;5043929;28;20477;-79
2022/06/10 04:14:03;;;;;;;10.40;7.97;;;12.50;99.90;;;;;;5027562;28;20481;-79
2022/06/10 04:16:33;;;;;;;9.63;8.23;;;12.50;99.90;;;;;;5027354;28;20447;-79
2022/06/10 04:19:01;;;;;;;10.07;8.30;;;12.50;99.90;;;;;;5028225;28;20439;-78
2022/06/10 04:21:31;;;;;;;17.30;14.43;;;12.50;99.90;;;;;;5028055;28;20478;-80
2022/06/10 04:23:59;;;;;;;10.20;9.03;;;12.60;99.90;;;;;;5027865;28;20968;-80
2022/06/10 04:26:27;;;;;;;10.93;8.70;;;12.60;99.90;;;;;;5046102;28;20454;-81
2022/06/10 04:28:55;;;;;;;11.03;9.03;;;12.60;99.90;;;;;;5025043;28;20470;-78
2022/06/10 04:31:24;;;;;;;11.70;8.60;;;12.60;99.90;;;;;;5043515;28;20879;-77
2022/06/10 04:33:52;;;;;;;9.60;8.50;;;12.60;99.90;;;;;;5024429;28;20451;-80
2022/06/10 04:36:21;;;;;;;10.57;8.20;;;12.60;99.90;;;;;;5042036;28;20455;-78
2022/06/10 04:38:50;;;;;;;12.17;8.77;;;12.60;99.90;;;;;;5023711;28;20450;-79
2022/06/10 04:41:18;;;;;;;11.93;9.60;;;12.70;99.90;;;;;;5023610;28;20509;-79
2022/06/10 04:43:47;;;;;;;10.43;8.23;;;12.70;99.90;;;;;;5022959;28;20453;-78
2022/06/10 04:46:25;;;;;;;9.53;8.50;;;12.70;99.90;;;;;;5040906;28;20481;-76
2022/06/10 04:48:53;;;;;;;13.50;8.40;;;12.80;99.90;;;;;;5023095;28;20497;-79
2022/06/10 04:51:22;;;;;;;12.27;8.07;;;12.80;99.90;;;;;;5022951;28;20454;-78
2022/06/10 04:53:52;;;;;;;13.03;8.40;;;12.80;99.90;;;;;;5023879;28;20447;-80
2022/06/10 04:56:20;;;;;;;9.60;8.33;;;12.80;99.90;;;;;;5024383;28;20509;-79
2022/06/10 04:58:48;;;;;;;10.90;8.80;;;12.90;99.90;;;;;;5022999;28;20803;-79
2022/06/10 05:01:17;;;;;;;10.80;8.23;;;12.90;99.90;;;;;;5042689;28;20442;-79
2022/06/10 05:03:52;;;;;;;12.57;8.77;;;12.90;99.90;;;;;;5025994;28;20446;-79
2022/06/10 05:06:20;;;;;;;11.90;9.40;;;13.00;99.90;;;;;;5026064;28;20502;-80
2022/06/10 05:08:49;;;;;;;10.07;7.40;;;13.00;99.90;;;;;;5023193;28;20521;-79
2022/06/10 05:11:19;;;;;;;9.60;7.73;;;13.00;99.90;;;;;;5022617;28;20451;-80
2022/06/10 05:13:47;;;;;;;9.10;8.10;;;13.10;99.90;;;;;;5022759;28;20484;-78
2022/06/10 05:16:20;;;;;;;9.30;7.53;;;13.10;99.90;;;;;;5040158;28;20490;-79
2022/06/10 05:18:48;;;;;;;10.53;8.87;;;13.20;99.90;;;;;;5021655;28;20555;-78
2022/06/10 05:21:17;;;;;;;10.00;7.70;;;13.30;99.90;;;;;;5022137;28;20513;-78
2022/06/10 05:23:46;;;;;;;9.80;7.40;;;13.30;99.90;;;;;;5024675;28;20455;-79
2022/06/10 05:26:16;;;;;;;11.57;7.43;;;13.40;99.90;;;;;;5024994;28;20471;-80
2022/06/10 05:28:49;;;;;;;13.93;7.13;;;13.40;99.90;;;;;;5024766;28;20481;-78
2022/06/10 05:31:18;;;;;;;11.50;7.47;;;13.50;99.90;;;;;;5041056;28;20446;-78
2022/06/10 05:36:32;;;;;;;11.50;7.10;;;13.70;99.90;;;;;;5042711;28;20419;-78
2022/06/10 05:39:00;;;;;;;9.40;6.10;;;13.90;99.90;;;;;;5023614;28;20447;-78
2022/06/10 05:44:16;;;;;;;10.30;7.07;;;14.30;99.90;;;;;;5025748;28;20435;-77
2022/06/10 05:46:44;;;;;;;12.90;6.47;;;14.50;99.90;;;;;;5042890;28;20881;-78
2022/06/10 05:49:12;;;;;;;9.67;6.10;;;14.80;99.90;;;;;;5023511;28;20550;-79
2022/06/10 05:51:44;;;;;;;10.40;5.63;;;15.10;99.90;;;;;;5024665;28;20450;-79
2022/06/10 05:54:13;;;;;;;8.40;6.10;;;15.30;99.90;;;;;;5024811;28;20459;-79
2022/06/10 05:56:41;;;;;;;10.50;5.10;;;15.60;99.90;;;;;;5041701;28;20443;-79
2022/06/10 05:59:09;;;;;;;10.00;4.80;;;15.90;99.90;;;;;;5025480;28;20449;-78
2022/06/10 06:01:40;;;;;;;8.40;4.80;;;16.20;99.90;;;;;;5026049;28;20496;-78
2022/06/10 06:04:08;;;;;;;11.40;4.70;;;16.50;99.90;;;;;;5026470;28;20489;-79
2022/06/10 06:06:37;;;;;;;9.43;4.07;;;16.80;99.90;;;;;;5043610;28;20422;-78
2022/06/10 06:09:05;;;;;;;8.07;4.60;;;17.10;99.90;;;;;;5024632;28;20537;-79
2022/06/10 06:11:33;;;;;;;9.20;4.37;;;17.40;99.90;;;;;;5042866;28;20437;-78
2022/06/10 06:14:02;;;;;;;7.87;4.73;;;17.70;99.90;;;;;;5038773;28;20454;-77
2022/06/10 06:16:30;;;;;;;8.20;4.27;;;18.00;99.90;;;;;;5038379;28;20457;-77
2022/06/10 06:19:00;;;;;;;9.00;3.77;;;18.20;99.90;;;;;;5040262;28;20466;-78
2022/06/10 06:21:28;;;;;;;7.30;3.37;;;18.50;99.90;;;;;;5043506;28;20441;-81
2022/06/10 06:23:56;;;;;;;9.70;3.13;;;18.70;99.90;;;;;;5026077;28;20482;-79
2022/06/10 06:26:25;;;;;;;7.63;3.70;;;18.90;99.90;;;;;;5045537;28;20451;-78
2022/06/10 06:28:53;;;;;;;6.23;2.97;;;19.10;99.90;;;;;;5026947;28;20482;-79
2022/06/10 06:31:22;;;;;;;9.70;4.40;;;19.30;99.90;;;;;;5043919;28;20458;-81
2022/06/10 06:33:50;;;;;;;7.53;3.00;;;19.60;99.90;;;;;;5023100;28;20478;-78
2022/06/10 06:36:23;;;;;;;7.60;3.27;;;19.80;99.90;;;;;;5023325;28;21026;-78
2022/06/10 06:38:51;;;;;;;9.90;3.20;;;19.90;99.90;;;;;;5033497;28;20439;-80
2022/06/10 06:41:21;;;;;;;7.80;3.13;;;20.00;99.90;;;;;;5033439;28;20479;-80
2022/06/10 06:43:50;;;;;;;8.23;3.50;;;20.20;99.90;;;;;;5030402;28;20450;-78
2022/06/10 06:46:19;;;;;;;12.00;3.17;;;20.40;99.90;;;;;;5046585;28;20549;-82
2022/06/10 06:48:47;;;;;;;7.77;3.30;;;20.60;99.90;;;;;;5028411;28;20455;-80
2022/06/10 06:51:16;;;;;;;7.53;3.33;;;20.80;99.90;;;;;;5043535;28;20434;-78
2022/06/10 06:53:45;;;;;;;6.37;3.33;;;20.90;99.90;;;;;;5044740;28;20818;-81
2022/06/10 06:56:14;;;;;;;10.97;3.90;;;21.10;99.90;;;;;;5045075;28;20539;-79
2022/06/10 06:58:42;;;;;;;6.97;3.40;;;21.30;99.90;;;;;;5043931;28;20443;-79
2022/06/10 07:01:10;;;;;;;8.23;4.00;;;21.50;99.90;;;;;;5026826;28;20457;-78
2022/06/10 07:03:39;;;;;;;6.73;2.90;;;21.60;99.90;;;;;;5044806;28;20461;-78
2022/06/10 07:06:07;;;;;;;9.90;3.27;;;21.80;99.90;;;;;;5027160;28;20549;-78
2022/06/10 07:08:36;;;;;;;7.67;3.97;;;21.90;99.90;;;;;;5028661;28;20455;-80
2022/06/10 07:11:07;;;;;;;9.20;3.03;;;22.10;99.90;;;;;;5028589;28;20451;-78
2022/06/10 07:13:36;;;;;;;6.53;3.37;;;22.20;99.90;;;;;;5047403;28;20415;-79
2022/06/10 07:16:07;;;;;;;8.17;3.03;;;22.30;99.90;;;;;;5027949;28;20471;-81
2022/06/10 07:18:35;;;;;;;8.20;3.57;;;22.40;99.90;;;;;;5031710;28;20439;-79
2022/06/10 07:21:05;;;;;;;9.07;3.57;;;22.50;99.90;;;;;;5046215;28;20446;-79
2022/06/10 07:23:34;;;;;;;8.00;3.40;;;22.60;99.90;;;;;;5028930;28;20505;-78
2022/06/10 07:26:03;;;;;;;5.43;2.70;;;22.60;99.90;;;;;;5026332;28;20466;-79
2022/06/10 07:28:33;;;;;;;9.60;2.97;;;22.70;99.70;;;;;;5028253;28;20465;-80
2022/06/10 07:31:02;;;;;;;8.03;2.70;;;22.80;99.50;;;;;;5031250;28;20444;-79
2022/06/10 07:33:31;;;;;;;8.00;2.23;;;22.90;99.50;;;;;;5046260;28;20438;-80
2022/06/10 07:35:59;;;;;;;8.30;3.60;;;23.00;99.40;;;;;;5025829;28;20490;-79
2022/06/10 07:38:27;;;;;;;8.30;3.97;;;23.10;99.20;;;;;;5026633;28;20455;-80
2022/06/10 07:43:44;;;;;;;8.53;3.57;;;23.30;99.00;;;;;;5027881;28;20956;-80
2022/06/10 07:46:15;;;;;;;10.90;3.60;;;23.50;98.70;;;;;;5027043;28;20537;-77
2022/06/10 07:48:45;;;;;;;7.20;3.63;;;23.50;98.20;;;;;;5026629;28;20466;-79
2022/06/10 07:51:13;;;;;;;6.63;3.70;;;23.50;98.10;;;;;;5026624;28;20458;-80
2022/06/10 07:53:42;;;;;;;11.90;4.90;;;23.60;97.90;;;;;;5044764;28;20446;-78
2022/06/10 07:56:13;;;;;;;13.50;4.70;;;23.60;97.80;;;;;;5044274;28;20459;-79
2022/06/10 07:58:43;;;;;;;12.30;6.47;;;23.70;97.80;;;;;;5027451;28;20447;-79
2022/06/10 08:01:12;;;;;;;8.80;4.67;;;23.80;97.60;;;;;;5027418;28;20818;-80
2022/06/10 08:03:48;;;;;;;9.47;6.13;;;23.80;97.90;;;;;;5026522;28;20447;-79
2022/06/10 08:06:17;;;;;;;9.53;5.50;;;23.90;97.60;;;;;;5025944;28;20470;-79
2022/06/10 08:08:46;;;;;;;9.40;5.03;;;23.90;97.40;;;;;;5025102;28;20454;-79
2022/06/10 08:11:14;;;;;;;8.20;6.10;;;24.00;97.40;;;;;;5027557;28;20471;-78
2022/06/10 08:13:44;;;;;;;11.83;6.70;;;24.00;97.40;;;;;;5027933;28;20443;-78
2022/06/10 08:16:13;;;;;;;14.70;7.97;;;24.10;97.40;;;;;;5026084;28;20475;-79
2022/06/10 08:18:42;;;;;;;11.77;7.57;;;24.20;97.20;;;;;;5044469;28;20442;-80
2022/06/10 08:24:03;;;;;;;14.07;7.40;;;24.30;97.00;;;;;;5042057;28;20474;-78
2022/06/10 08:26:31;;;;;;;9.57;6.03;;;24.30;96.80;;;;;;5022365;28;20534;-78
2022/06/10 08:29:03;;;;;;;14.50;6.90;;;24.30;96.70;;;;;;5032197;28;20454;-80
2022/06/10 08:31:31;;;;;;;12.10;7.80;;;24.30;96.50;;;;;;5037130;28;20443;-81
2022/06/10 08:34:01;;;;;;;11.50;7.10;;;24.30;96.50;;;;;;5053305;28;20514;-81
2022/06/10 08:36:29;;;;;;;16.10;6.73;;;24.20;96.00;;;;;;5031667;28;21071;-81
2022/06/10 08:38:57;;;;;;;10.03;5.20;;;24.20;96.00;;;;;;5030794;28;20490;-80
2022/06/10 08:41:31;;;;;;;11.33;7.03;;;24.10;95.60;;;;;;5031025;28;21019;-79
2022/06/10 08:44:10;;;;;;;8.10;5.27;;;23.90;95.30;;;;;;5027313;28;20454;-79
2022/06/10 08:47:00;;;;;;;11.37;4.63;;;23.80;95.30;;;;;;5025796;28;20470;-79
2022/06/10 08:49:53;;;;;;;8.97;4.70;;;23.80;95.40;;;;;;5025018;28;20443;-79
2022/06/10 08:52:28;;;;;;;7.67;3.90;;;23.90;95.20;;;;;;5024410;28;20820;-78
2022/06/10 08:55:05;;;;;;;7.53;4.10;;;23.90;95.00;;;;;;5026240;28;20545;-80
2022/06/10 08:57:37;;;;;;;9.23;4.20;;;23.90;94.90;;;;;;5026585;28;20453;-80
2022/06/10 09:00:17;;;;;;;7.97;4.10;;;24.00;94.60;;;;;;5024101;28;20455;-80
2022/06/10 09:02:53;;;;;;;7.50;3.97;;;24.00;94.30;;;;;;5041859;28;20487;-78
2022/06/10 09:05:26;;;;;;;7.60;4.43;;;24.00;94.30;;;;;;5024904;28;20566;-80
2022/06/10 09:07:59;;;;;;;6.90;4.20;;;24.10;94.50;;;;;;5041654;28;20430;-82
2022/06/10 09:10:33;;;;;;;10.07;5.63;;;24.20;94.40;;;;;;5039898;28;20455;-80
2022/06/10 09:13:19;;;;;;;8.67;5.87;;;24.20;94.50;;;;;;5024167;28;20445;-80
2022/06/10 09:15:54;;;;;;;9.23;7.60;;;24.10;94.30;;;;;;5022898;28;20554;-80
2022/06/10 09:18:30;;;;;;;8.90;6.63;;;24.00;94.30;;;;;;5040288;28;20434;-79
2022/06/10 09:21:07;;;;;;;10.90;6.43;;;23.70;94.30;;;;;;5040311;28;20928;-80
2022/06/10 09:23:40;;;;;;;8.10;5.60;;;23.60;94.40;;;;;;5022498;28;20443;-80
2022/06/10 09:26:14;;;;;;;7.43;4.47;;;23.50;94.50;;;;;;5040090;28;20470;-79
2022/06/10 09:28:47;;;;;;;7.47;3.87;;;23.40;94.50;;;;;;5019949;28;21006;-79
2022/06/10 09:31:34;;;;;;;8.40;3.73;;;23.20;94.60;;;;;;5038210;28;20903;-81
2022/06/10 09:34:10;;;;;;;7.00;3.90;;;23.20;94.80;;;;;;5038395;28;20435;-81
2022/06/10 09:36:43;;;;;;;8.83;3.57;;;23.20;94.90;;;;;;5020571;28;20451;-78
2022/06/10 09:42:12;;;;;;;11.30;3.20;;;23.10;95.10;;;;;;5020595;28;20455;-79
2022/06/10 09:44:49;;;;;;;5.23;2.00;;;23.10;95.10;;;;;;5039089;28;20882;-80
2022/06/10 09:47:27;;;;;;;6.73;2.77;;;23.10;95.00;;;;;;5022117;28;20983;-78
2022/06/10 09:50:07;;;;;;;6.90;2.60;;;23.10;95.00;;;;;;5021519;28;20435;-80
2022/06/10 09:52:45;;;;;;;7.73;2.47;;;23.10;94.90;;;;;;5038093;28;20435;-79
2022/06/10 09:55:28;;;;;;;8.80;2.50;;;23.00;95.00;;;;;;5037885;28;20465;-81
2022/06/10 09:58:13;;;;;;;5.57;2.30;;;23.00;95.00;;;;;;5037403;28;20434;-82
2022/06/10 10:00:49;;;;;;;5.17;2.03;;;23.00;95.10;;;;;;5019919;28;20515;-80
2022/06/10 10:03:35;;;;;;;4.80;1.60;;;23.00;95.20;;;;;;5020487;28;21014;-80
2022/06/10 10:06:19;;;;;;;4.87;1.80;;;23.00;95.20;;;;;;5038378;28;20458;-79
2022/06/10 10:09:04;;;;;;;8.80;2.77;;;23.00;95.40;;;;;;5040061;28;20492;-78
2022/06/10 10:11:37;;;;;;;6.20;2.40;;;23.00;95.40;;;;;;5038504;28;20459;-78
2022/06/10 10:14:14;;;;;;;6.30;2.77;;;22.90;95.40;;;;;;5039130;28;20764;-79
2022/06/10 10:16:52;;;;;;;7.17;4.13;;;22.90;95.60;;;;;;5020803;28;20483;-81
2022/06/10 10:19:49;;;;;;;8.30;3.60;;;22.90;95.70;;;;;;5020402;28;20978;-80
2022/06/10 10:22:46;;;;;;;7.77;3.77;;;22.90;95.80;;;;;;5020589;28;20542;-82
2022/06/10 10:25:18;;;;;;;6.13;3.67;;;22.90;95.90;;;;;;5038579;28;20491;-81
2022/06/10 10:27:48;;;;;;;6.80;3.47;;;22.90;96.00;;;;;;5038301;28;20451;-78
2022/06/10 10:30:20;;;;;;;6.47;3.87;;;22.90;96.40;;;;;;5020593;28;20446;-80
2022/06/10 10:32:54;;;;;;;7.70;4.77;;;22.90;96.20;;;;;;5038595;28;20502;-79
2022/06/10 10:35:27;;;;;;;8.03;4.67;;;22.90;96.20;;;;;;5020333;28;20467;-81
2022/06/10 10:37:58;;;;;;;6.77;3.93;;;22.90;96.30;;;;;;5020639;28;20864;-80
2022/06/10 10:40:34;;;;;;;6.67;3.70;;;22.90;96.40;;;;;;5039941;28;20811;-82
2022/06/10 10:43:06;;;;;;;10.33;5.73;;;23.00;96.50;;;;;;5024393;28;20854;-79
2022/06/10 10:45:38;;;;;;;7.17;4.33;;;23.00;96.50;;;;;;5024765;28;20529;-80
2022/06/10 10:48:17;;;;;;;6.70;4.70;;;22.90;96.50;;;;;;5025889;28;20852;-79
2022/06/10 10:51:00;;;;;;;6.97;4.43;;;22.90;96.70;;;;;;5036540;28;20471;-81
2022/06/10 10:53:37;;;;;;;7.40;4.83;;;22.90;96.70;;;;;;5046550;28;20450;-80
2022/06/10 10:56:08;;;;;;;8.03;3.97;;;23.00;97.10;;;;;;5029398;28;20520;-80
2022/06/10 10:58:38;;;;;;;12.47;5.03;;;23.10;97.00;;;;;;5028002;28;20450;-81
2022/06/10 11:01:43;;;;;;;7.67;4.67;;;23.20;97.10;;;;;;5044473;28;20419;-81
2022/06/10 11:03:58;;;;;;;7.77;5.40;;;23.30;97.20;;;;;;5044265;28;20806;-79
2022/06/10 11:06:32;;;;;;;14.40;5.73;;;23.50;97.20;;;;;;5044738;28;20470;-80
2022/06/10 11:09:13;;;;;;;14.53;5.83;;;23.50;97.10;;;;;;5027055;28;20438;-82
2022/06/10 11:11:44;;;;;;;8.13;4.80;;;23.50;97.10;;;;;;5026719;28;20466;-80
2022/06/10 11:14:25;;;;;;;10.43;4.37;;;23.40;97.00;;;;;;5028201;28;20439;-80
2022/06/10 11:17:17;;;;;;;7.67;4.37;;;23.30;97.00;;;;;;5025662;28;20443;-79
2022/06/10 11:19:48;;;;;;;6.43;3.70;;;23.10;97.10;;;;;;5036283;28;20489;-80
2022/06/10 11:22:35;;;;;;;7.30;3.80;;;23.00;97.50;;;;;;5042836;28;20411;-82
2022/06/10 11:25:27;;;;;;;6.70;4.17;;;22.90;97.20;;;;;;5024497;28;20474;-81
2022/06/10 11:28:05;;;;;;;7.40;4.30;;;22.90;97.40;;;;;;5025600;28;20443;-81
2022/06/10 11:30:38;;;;;;;8.30;3.97;;;22.90;97.40;;;;;;5025686;28;20446;-81
2022/06/10 11:33:17;;;;;;;7.57;3.93;;;22.90;97.50;;;;;;5025671;28;20457;-82
2022/06/10 11:36:05;;;;;;;16.83;5.50;;;22.90;97.60;;;;;;5043134;28;20486;-79
2022/06/10 11:38:39;;;;;;;7.00;4.80;;;22.90;97.60;;;;;;5044679;28;20860;-82
2022/06/10 11:41:25;;;;;;;6.00;3.97;;;22.90;97.70;;;;;;5029528;28;20948;-83
2022/06/10 11:44:01;;;;;;;8.77;3.87;;;22.90;97.70;;;;;;5029009;28;20431;-82
2022/06/10 11:46:35;;;;;;;8.20;4.20;;;22.80;98.00;;;;;;5031451;28;20487;-79
2022/06/10 11:49:10;;;;;;;7.20;5.00;;;22.70;97.80;;;;;;5048023;28;20431;-80
2022/06/10 11:51:48;;;;;;;9.97;4.73;;;22.70;98.00;;;;;;5027881;28;20492;-81
2022/06/10 11:54:34;;;;;;;9.07;4.93;;;22.70;98.00;;;;;;5029956;28;20446;-80
2022/06/10 12:00:02;;;;;;;9.70;4.87;;;22.70;98.00;;;;;;5048712;28;20458;-81
2022/06/10 12:02:35;;;;;;;8.00;4.50;;;22.70;98.00;;;;;;5047371;28;20481;-80
2022/06/10 12:05:21;;;;;;;9.80;5.43;;;22.70;98.10;;;;;;5047779;28;20505;-80
2022/06/10 12:07:55;;;;;;;9.70;4.57;;;22.70;98.20;;;;;;5030925;28;20473;-81
2022/06/10 12:10:41;;;;;;;8.83;5.17;;;22.70;98.20;;;;;;5028314;28;20983;-82
2022/06/10 12:13:11;;;;;;;9.03;5.40;;;22.70;98.30;;;;;;5047121;28;20455;-81
2022/06/10 12:15:48;;;;;;;7.20;5.40;;;22.60;98.20;;;;;;5055184;28;20435;-80
2022/06/10 12:18:17;;;;;;;9.73;4.93;;;22.50;98.20;;;;;;5037488;28;20466;-80
2022/06/10 12:20:49;;;;;;;8.03;5.00;;;22.40;98.30;;;;;;5035238;28;20522;-80
2022/06/10 12:23:24;;;;;;;8.00;5.37;;;22.30;98.30;;;;;;5029075;28;20474;-80
2022/06/10 12:26:02;;;;;;;12.30;5.20;;;22.20;98.40;;;;;;5028593;28;20839;-81
2022/06/10 12:28:37;;;;;;;8.20;5.17;;;22.20;98.50;;;;;;5027027;28;20820;-80
2022/06/10 12:31:21;;;;;;;10.93;5.77;;;22.20;98.60;;;;;;5025807;28;20497;-80
2022/06/10 12:33:55;;;;;;;9.50;5.63;;;22.20;98.70;;;;;;5042024;28;20457;-80
2022/06/10 12:36:28;;;;;;;8.70;5.20;;;22.30;98.70;;;;;;5043223;28;20828;-79
2022/06/10 12:38:58;;;;;;;10.07;5.80;;;22.30;98.80;;;;;;5042341;28;20442;-80
2022/06/10 12:41:40;;;;;;;7.20;5.07;;;22.30;98.80;;;;;;5041925;28;21051;-80
2022/06/10 12:44:14;;;;;;;8.97;5.23;;;22.40;98.90;;;;;;5024097;28;20439;-78
2022/06/10 12:46:46;;;;;;;9.80;4.70;;;22.40;98.80;;;;;;5041379;28;20462;-79
2022/06/10 12:49:21;;;;;;;7.97;5.73;;;22.50;99.00;;;;;;5023035;28;20439;-79
2022/06/10 12:52:09;;;;;;;10.57;5.70;;;22.50;99.00;;;;;;5023910;28;20915;-79
2022/06/10 12:54:53;;;;;;;7.93;5.40;;;22.60;99.10;;;;;;5023736;28;20843;-79
2022/06/10 12:57:39;;;;;;;10.03;5.07;;;22.70;99.00;;;;;;5023997;28;20485;-81
2022/06/10 13:00:42;;;;;;;8.20;5.40;;;22.80;99.00;;;;;;5022459;28;20442;-80
2022/06/10 13:03:34;;;;;;;8.30;5.23;;;22.90;99.00;;;;;;5023695;28;20474;-80
2022/06/10 13:06:26;;;;;;;7.67;4.10;;;22.90;98.80;;;;;;5023036;28;20471;-80
2022/06/10 13:08:57;;;;;;;8.60;5.03;;;22.90;98.80;;;;;;5041861;28;20426;-80
2022/06/10 13:11:35;;;;;;;8.07;4.73;;;22.90;98.80;;;;;;5022860;28;20483;-81
2022/06/10 13:14:24;;;;;;;7.10;4.73;;;22.80;98.70;;;;;;5040615;28;20430;-80
2022/06/10 13:17:17;;;;;;;7.97;4.20;;;22.90;98.90;;;;;;5042394;28;20423;-81
2022/06/10 13:20:10;;;;;;;6.23;3.77;;;22.90;98.80;;;;;;5023917;28;20518;-80
2022/06/10 13:22:40;;;;;;;9.37;4.30;;;22.90;98.70;;;;;;5023456;28;20834;-81
2022/06/10 13:25:20;;;;;;;7.93;3.40;;;23.00;98.70;;;;;;5041696;28;20474;-80
2022/06/10 13:27:50;;;;;;;6.47;3.37;;;23.10;98.60;;;;;;5024080;28;20837;-80
2022/06/10 13:30:27;;;;;;;8.00;3.60;;;23.10;98.60;;;;;;5041748;28;20835;-81
2022/06/10 13:33:03;;;;;;;7.20;4.10;;;23.10;98.90;;;;;;5023018;28;20469;-82
2022/06/10 13:35:33;;;;;;;5.40;3.30;;;23.20;98.70;;;;;;5041426;28;20497;-80
2022/06/10 13:38:04;;;;;;;6.53;3.47;;;23.20;98.60;;;;;;5040311;28;20578;-80